createdAt,value
2023-03-11T00:01:14.371Z,79.40
2023-03-11T00:03:43.651Z,85.90
2023-03-11T00:06:13.173Z,96.20
2023-03-11T00:08:42.428Z,96.00
2023-03-11T00:11:11.757Z,94.80
2023-03-11T00:13:41.111Z,110.00
2023-03-11T00:16:10.872Z,93.80
2023-03-11T00:18:40.222Z,114.50
2023-03-11T00:21:17.025Z,110.40
2023-03-11T00:23:47.206Z,101.50
2023-03-11T00:26:16.479Z,109.80
2023-03-11T00:28:47.982Z,104.50
2023-03-11T00:31:17.293Z,110.60
2023-03-11T00:33:46.631Z,103.70
2023-03-11T00:36:23.873Z,106.20
2023-03-11T00:38:53.934Z,105.80
2023-03-11T00:41:23.381Z,108.60
2023-03-11T00:43:52.689Z,94.30
2023-03-11T00:46:22.011Z,101.00
2023-03-11T00:48:52.663Z,96.80
2023-03-11T00:51:21.923Z,84.10
2023-03-11T00:53:51.174Z,99.30
2023-03-11T00:56:21.143Z,85.50
2023-03-11T00:58:50.474Z,94.60
2023-03-11T01:01:21.158Z,92.70
2023-03-11T01:03:50.793Z,100.00
2023-03-11T01:06:20.066Z,92.00
2023-03-11T01:08:49.429Z,107.60
2023-03-11T01:11:19.139Z,105.80
2023-03-11T01:13:48.516Z,96.50
2023-03-11T01:16:17.908Z,91.80
2023-03-11T01:18:47.220Z,91.60
2023-03-11T01:21:17.215Z,96.30
2023-03-11T01:23:46.565Z,95.50
2023-03-11T01:26:16.389Z,96.40
2023-03-11T01:28:45.679Z,97.20
2023-03-11T01:31:15.035Z,92.00
2023-03-11T01:33:44.535Z,93.20
2023-03-11T01:36:14.655Z,86.90
2023-03-11T01:38:44.009Z,73.30
2023-03-11T01:41:13.792Z,68.40
2023-03-11T01:43:54.350Z,68.30
2023-03-11T01:46:27.660Z,60.20
2023-03-11T01:48:59.679Z,56.60
2023-03-11T01:51:36.077Z,57.60
2023-03-11T01:54:10.482Z,54.10
2023-03-11T01:56:41.417Z,51.60
2023-03-11T01:59:14.519Z,50.80
2023-03-11T02:01:50.561Z,50.10
2023-03-11T02:04:21.310Z,46.50
2023-03-11T02:06:53.695Z,45.70
2023-03-11T02:09:26.397Z,45.70
2023-03-11T02:11:56.792Z,42.60
2023-03-11T02:14:29.390Z,38.70
2023-03-11T02:16:59.885Z,36.60
2023-03-11T02:19:37.584Z,39.10
2023-03-11T02:22:08.128Z,36.10
2023-03-11T02:24:45.227Z,31.40
2023-03-11T02:27:17.414Z,33.50
2023-03-11T02:29:49.617Z,32.30
2023-03-11T02:32:19.945Z,31.50
2023-03-11T02:34:49.377Z,31.60
2023-03-11T02:37:19.466Z,30.70
2023-03-11T02:40:15.802Z,34.10
2023-03-11T02:42:45.170Z,31.60
2023-03-11T02:45:18.481Z,32.00
2023-03-11T02:47:48.336Z,27.90
2023-03-11T02:50:18.698Z,25.30
2023-03-11T02:52:50.245Z,25.20
2023-03-11T02:55:20.114Z,23.60
2023-03-11T02:57:49.485Z,24.70
2023-03-11T03:00:20.617Z,26.80
2023-03-11T03:02:55.244Z,22.80
2023-03-11T03:05:25.124Z,25.70
2023-03-11T03:07:54.521Z,23.10
2023-03-11T03:10:24.347Z,25.20
2023-03-11T03:12:53.818Z,21.40
2023-03-11T03:15:23.124Z,19.80
2023-03-11T03:17:53.306Z,20.00
2023-03-11T03:20:22.657Z,21.70
2023-03-11T03:22:54.348Z,20.10
2023-03-11T03:25:26.345Z,19.40
2023-03-11T03:27:56.031Z,17.30
2023-03-11T03:30:25.586Z,17.60
2023-03-11T03:32:55.452Z,18.00
2023-03-11T03:35:24.827Z,19.90
2023-03-11T03:38:20.320Z,18.30
2023-03-11T03:40:50.348Z,19.30
2023-03-11T03:43:21.206Z,18.10
2023-03-11T03:45:58.433Z,17.90
2023-03-11T03:48:29.470Z,18.60
2023-03-11T03:51:04.300Z,17.20
2023-03-11T03:53:36.076Z,17.50
2023-03-11T03:56:07.514Z,21.30
2023-03-11T03:58:38.142Z,19.90
2023-03-11T04:01:08.351Z,19.80
2023-03-11T04:03:39.124Z,21.50
2023-03-11T04:06:18.263Z,20.40
2023-03-11T04:08:50.690Z,19.20
2023-03-11T04:11:21.067Z,18.70
2023-03-11T04:13:51.488Z,16.10
2023-03-11T04:16:22.807Z,15.10
2023-03-11T04:18:54.028Z,15.70
2023-03-11T04:21:24.185Z,14.10
2023-03-11T04:23:53.612Z,12.80
2023-03-11T04:26:24.399Z,11.20
2023-03-11T04:28:53.807Z,13.80
2023-03-11T04:31:24.072Z,12.20
2023-03-11T04:33:54.106Z,12.90
2023-03-11T04:36:24.443Z,13.20
2023-03-11T04:38:55.535Z,12.90
2023-03-11T04:41:25.542Z,14.10
2023-03-11T04:43:54.938Z,13.50
2023-03-11T04:46:24.528Z,13.80
2023-03-11T04:48:53.994Z,13.10
2023-03-11T04:51:23.492Z,14.50
2023-03-11T04:53:53.020Z,12.70
2023-03-11T04:56:22.609Z,13.20
2023-03-11T04:58:52.413Z,11.50
2023-03-11T05:01:22.608Z,10.10
2023-03-11T05:03:52.750Z,9.70
2023-03-11T05:06:22.107Z,8.60
2023-03-11T05:08:51.520Z,8.20
2023-03-11T05:11:21.125Z,7.90
2023-03-11T05:13:50.785Z,6.90
2023-03-11T05:16:20.775Z,5.80
2023-03-11T05:18:50.225Z,6.20
2023-03-11T05:21:20.004Z,5.20
2023-03-11T05:23:49.476Z,5.10
2023-03-11T05:26:18.875Z,6.20
2023-03-11T05:28:49.180Z,5.40
2023-03-11T05:31:18.542Z,5.30
2023-03-11T05:33:47.942Z,5.20
2023-03-11T05:36:17.633Z,5.60
2023-03-11T05:38:47.553Z,6.00
2023-03-11T05:41:18.381Z,5.80
2023-03-11T05:43:48.324Z,5.50
2023-03-11T05:46:19.451Z,6.00
2023-03-11T05:48:49.020Z,5.60
2023-03-11T05:51:18.643Z,5.60
2023-03-11T05:53:49.509Z,5.70
2023-03-11T05:56:24.364Z,6.60
2023-03-11T05:58:56.986Z,5.50
2023-03-11T06:01:26.385Z,6.20
2023-03-11T06:03:56.662Z,6.00
2023-03-11T06:06:26.785Z,6.20
2023-03-11T06:08:57.465Z,6.00
2023-03-11T06:11:29.230Z,5.90
2023-03-11T06:13:59.612Z,6.90
2023-03-11T06:16:29.901Z,6.00
2023-03-11T06:19:01.972Z,6.00
2023-03-11T06:21:34.425Z,6.50
2023-03-11T06:24:05.381Z,6.50
2023-03-11T06:26:34.893Z,6.70
2023-03-11T06:29:04.760Z,7.20
2023-03-11T06:31:36.604Z,7.70
2023-03-11T06:34:11.040Z,8.10
2023-03-11T06:36:40.414Z,8.30
2023-03-11T06:39:12.119Z,8.20
2023-03-11T06:41:41.927Z,8.10
2023-03-11T06:44:12.126Z,8.70
2023-03-11T06:46:41.580Z,8.70
2023-03-11T06:49:10.988Z,9.70
2023-03-11T06:51:40.893Z,9.30
2023-03-11T06:54:11.414Z,9.00
2023-03-11T06:56:40.781Z,9.70
2023-03-11T06:59:10.607Z,9.80
2023-03-11T07:01:39.902Z,11.60
2023-03-11T07:04:12.488Z,11.50
2023-03-11T07:06:43.341Z,12.10
2023-03-11T07:09:21.735Z,11.10
2023-03-11T07:11:51.356Z,11.30
2023-03-11T07:14:26.233Z,10.30
2023-03-11T07:16:58.072Z,12.60
2023-03-11T07:19:31.660Z,10.60
2023-03-11T07:22:01.011Z,10.00
2023-03-11T07:24:30.358Z,10.60
2023-03-11T07:26:59.589Z,10.10
2023-03-11T07:29:29.033Z,10.50
2023-03-11T07:31:59.391Z,9.80
2023-03-11T07:34:28.722Z,9.90
2023-03-11T07:36:58.088Z,10.30
2023-03-11T07:39:28.471Z,9.30
2023-03-11T07:41:57.721Z,9.80
2023-03-11T07:44:33.363Z,9.70
2023-03-11T07:47:04.124Z,9.40
2023-03-11T07:49:33.815Z,9.30
2023-03-11T07:52:03.232Z,10.70
2023-03-11T07:54:32.533Z,10.80
2023-03-11T07:57:03.269Z,10.70
2023-03-11T07:59:32.621Z,10.70
2023-03-11T08:02:04.353Z,11.40
2023-03-11T08:04:33.923Z,10.50
2023-03-11T08:07:03.410Z,11.20
2023-03-11T08:09:34.656Z,10.30
2023-03-11T08:12:04.258Z,9.30
2023-03-11T08:14:33.560Z,10.30
2023-03-11T08:17:03.961Z,9.70
2023-03-11T08:19:33.337Z,8.30
2023-03-11T08:22:04.226Z,9.30
2023-03-11T08:24:36.184Z,8.70
2023-03-11T08:27:05.669Z,10.00
2023-03-11T08:29:36.032Z,10.20
2023-03-11T08:32:06.739Z,10.20
2023-03-11T08:34:36.063Z,13.00
2023-03-11T08:37:05.667Z,10.80
2023-03-11T08:39:34.922Z,9.60
2023-03-11T08:42:04.566Z,10.50
2023-03-11T08:44:34.491Z,47.20
2023-03-11T08:47:03.892Z,11.10
2023-03-11T08:49:33.573Z,11.00
2023-03-11T08:52:03.425Z,10.00
2023-03-11T08:54:33.121Z,11.30
2023-03-11T08:57:04.212Z,11.00
2023-03-11T08:59:33.517Z,9.40
2023-03-11T09:02:02.941Z,13.60
2023-03-11T09:04:32.275Z,11.70
2023-03-11T09:07:01.611Z,10.40
2023-03-11T09:09:30.921Z,9.70
2023-03-11T09:12:00.193Z,12.80
2023-03-11T09:14:29.547Z,16.40
2023-03-11T09:16:58.879Z,13.60
2023-03-11T09:19:28.093Z,14.80
2023-03-11T09:21:59.524Z,16.30
2023-03-11T09:24:29.633Z,16.60
2023-03-11T09:26:58.906Z,13.40
2023-03-11T09:29:28.181Z,11.10
2023-03-11T09:31:57.664Z,17.00
2023-03-11T09:34:27.028Z,16.00
2023-03-11T09:36:56.403Z,23.20
2023-03-11T09:39:25.843Z,60.80
2023-03-11T09:41:58.856Z,128.10
2023-03-11T09:44:37.489Z,20.90
2023-03-11T09:47:30.987Z,10.70
2023-03-11T09:50:14.570Z,116.70
2023-03-11T09:52:51.552Z,139.30
2023-03-11T09:55:33.383Z,284.60
2023-03-11T09:58:10.759Z,301.10
2023-03-11T10:00:41.020Z,386.30
2023-03-11T10:03:26.051Z,122.60
2023-03-11T10:06:02.929Z,123.60
2023-03-11T10:08:39.125Z,130.00
2023-03-11T10:11:20.071Z,46.60
2023-03-11T10:13:57.770Z,58.70
2023-03-11T10:16:38.034Z,19.20
2023-03-11T10:19:15.787Z,10.90
2023-03-11T10:21:54.153Z,12.30
2023-03-11T10:24:40.936Z,9.80
2023-03-11T10:27:16.097Z,17.10
2023-03-11T10:29:55.049Z,17.10
2023-03-11T10:32:31.414Z,22.40
2023-03-11T10:35:07.236Z,14.30
2023-03-11T10:37:49.854Z,8.00
2023-03-11T10:40:26.642Z,9.60
2023-03-11T10:42:58.915Z,9.30
2023-03-11T10:45:37.984Z,9.70
2023-03-11T10:48:12.384Z,7.70
2023-03-11T10:50:50.115Z,7.20
2023-03-11T10:53:21.300Z,7.30
2023-03-11T10:55:52.962Z,8.80
2023-03-11T10:58:24.720Z,7.30
2023-03-11T11:01:07.867Z,8.30
2023-03-11T11:03:41.630Z,9.60
2023-03-11T11:06:21.772Z,8.70
2023-03-11T11:09:05.893Z,9.40
2023-03-11T11:11:35.935Z,10.20
2023-03-11T11:14:05.809Z,10.40
2023-03-11T11:16:35.833Z,8.90
2023-03-11T11:19:09.031Z,8.50
2023-03-11T11:21:40.157Z,9.40
2023-03-11T11:24:19.900Z,10.30
2023-03-11T11:27:13.840Z,7.50
2023-03-11T11:29:43.487Z,13.00
2023-03-11T11:32:20.397Z,11.50
2023-03-11T11:35:00.772Z,11.70
2023-03-11T11:37:32.568Z,10.80
2023-03-11T11:40:11.293Z,10.00
2023-03-11T11:42:46.169Z,9.40
2023-03-11T11:45:22.764Z,9.20
2023-03-11T11:47:56.637Z,7.40
2023-03-11T11:50:32.105Z,8.60
2023-03-11T11:53:13.181Z,7.90
2023-03-11T11:55:47.542Z,7.80
2023-03-11T11:58:17.417Z,9.60
2023-03-11T12:00:58.302Z,9.90
2023-03-11T12:03:45.076Z,9.70
2023-03-11T12:06:21.774Z,8.70
2023-03-11T12:09:04.951Z,10.00
2023-03-11T12:11:42.149Z,7.00
2023-03-11T12:14:18.755Z,15.70
2023-03-11T12:16:56.371Z,11.50
2023-03-11T12:19:37.608Z,9.70
2023-03-11T12:22:42.666Z,7.30
2023-03-11T12:25:32.182Z,9.30
2023-03-11T12:28:12.915Z,4.90
2023-03-11T12:30:45.803Z,5.40
2023-03-11T12:33:21.320Z,6.30
2023-03-11T12:35:55.398Z,5.50
2023-03-11T12:38:32.843Z,6.50
2023-03-11T12:41:05.612Z,5.60
2023-03-11T12:44:00.312Z,4.50
2023-03-11T12:47:10.620Z,5.40
2023-03-11T12:49:43.450Z,6.00
2023-03-11T12:52:25.856Z,5.80
2023-03-11T12:55:33.182Z,6.50
2023-03-11T12:58:36.217Z,6.00
2023-03-11T13:01:29.856Z,6.90
2023-03-11T13:04:16.404Z,6.80
2023-03-11T13:07:04.103Z,7.70
2023-03-11T13:09:33.739Z,6.80
2023-03-11T13:12:03.408Z,8.20
2023-03-11T13:14:33.557Z,7.40
2023-03-11T13:17:30.384Z,6.30
2023-03-11T13:19:59.983Z,8.10
2023-03-11T13:23:15.065Z,7.00
2023-03-11T13:26:02.521Z,5.60
2023-03-11T13:28:56.921Z,5.60
2023-03-11T13:31:42.004Z,5.50
2023-03-11T13:34:21.539Z,6.00
2023-03-11T13:37:05.115Z,5.80
2023-03-11T13:39:46.176Z,5.50
2023-03-11T13:42:22.108Z,6.60
2023-03-11T13:44:51.915Z,4.90
2023-03-11T13:47:22.628Z,5.30
2023-03-11T13:49:59.707Z,5.60
2023-03-11T13:52:34.454Z,4.00
2023-03-11T13:55:07.741Z,5.00
2023-03-11T13:57:38.071Z,4.70
2023-03-11T14:00:17.126Z,6.20
2023-03-11T14:02:54.571Z,5.30
2023-03-11T14:05:26.916Z,4.70
2023-03-11T14:08:11.233Z,5.90
2023-03-11T14:10:41.258Z,3.70
2023-03-11T14:13:18.942Z,4.50
2023-03-11T14:15:55.209Z,5.10
2023-03-11T14:18:33.534Z,5.60
2023-03-11T14:21:04.178Z,7.00
2023-03-11T14:23:39.997Z,4.00
2023-03-11T14:26:13.055Z,5.50
2023-03-11T14:28:45.108Z,4.40
2023-03-11T14:31:29.362Z,4.90
2023-03-11T14:34:03.801Z,4.30
2023-03-11T14:36:42.820Z,4.90
2023-03-11T14:39:26.535Z,4.80
2023-03-11T14:41:59.598Z,5.10
2023-03-11T14:44:30.959Z,5.20
2023-03-11T14:47:07.199Z,3.80
2023-03-11T14:49:37.659Z,4.30
2023-03-11T14:52:18.795Z,3.70
2023-03-11T14:54:49.543Z,5.10
2023-03-11T14:57:25.787Z,4.70
2023-03-11T14:59:57.203Z,4.10
2023-03-11T15:02:37.410Z,4.20
2023-03-11T15:05:14.392Z,6.30
2023-03-11T15:07:45.653Z,4.70
2023-03-11T15:10:16.052Z,5.10
2023-03-11T15:12:52.298Z,5.00
2023-03-11T15:15:27.647Z,4.00
2023-03-11T15:17:58.652Z,4.50
2023-03-11T15:20:31.463Z,5.60
2023-03-11T15:23:02.623Z,4.50
2023-03-11T15:25:34.585Z,6.30
2023-03-11T15:28:23.680Z,4.90
2023-03-11T15:31:13.067Z,4.60
2023-03-11T15:33:42.525Z,5.60
2023-03-11T15:36:33.111Z,4.40
2023-03-11T15:39:15.057Z,5.40
2023-03-11T15:41:46.342Z,3.80
2023-03-11T15:44:30.681Z,4.40
2023-03-11T15:47:00.435Z,6.00
2023-03-11T15:49:30.684Z,6.30
2023-03-11T15:52:00.879Z,7.40
2023-03-11T15:54:30.580Z,7.10
2023-03-11T15:57:01.120Z,8.70
2023-03-11T15:59:31.409Z,4.30
2023-03-11T16:02:01.124Z,5.70
2023-03-11T16:04:30.559Z,4.50
2023-03-11T16:07:07.788Z,4.40
2023-03-11T16:09:37.915Z,5.50
2023-03-11T16:12:15.873Z,4.60
2023-03-11T16:14:45.485Z,4.60
2023-03-11T16:17:15.793Z,4.80
2023-03-11T16:19:47.439Z,5.60
2023-03-11T16:22:21.508Z,6.10
2023-03-11T16:24:53.334Z,5.70
2023-03-11T16:27:23.098Z,4.80
2023-03-11T16:29:52.488Z,7.10
2023-03-11T16:32:21.849Z,8.00
2023-03-11T16:34:51.531Z,8.90
2023-03-11T16:37:20.868Z,8.90
2023-03-11T16:39:50.243Z,8.10
2023-03-11T16:42:23.487Z,7.20
2023-03-11T16:44:53.184Z,8.20
2023-03-11T16:47:22.482Z,6.30
2023-03-11T16:49:52.989Z,5.60
2023-03-11T16:52:22.894Z,6.90
2023-03-11T16:54:52.272Z,6.50
2023-03-11T16:57:21.660Z,7.00
2023-03-11T16:59:51.986Z,7.80
2023-03-11T17:02:24.344Z,5.90
2023-03-11T17:04:54.186Z,6.70
2023-03-11T17:07:24.148Z,7.80
2023-03-11T17:09:53.541Z,8.70
2023-03-11T17:12:22.911Z,6.50
2023-03-11T17:14:53.057Z,6.50
2023-03-11T17:17:23.121Z,7.30
2023-03-11T17:19:52.370Z,7.90
2023-03-11T17:22:21.618Z,10.40
2023-03-11T17:24:50.951Z,7.80
2023-03-11T17:27:20.307Z,10.50
2023-03-11T17:29:49.636Z,9.20
2023-03-11T17:32:20.891Z,9.30
2023-03-11T17:34:50.545Z,8.10
2023-03-11T17:37:20.632Z,11.00
2023-03-11T17:39:50.414Z,9.80
2023-03-11T17:42:19.782Z,9.90
2023-03-11T17:44:52.007Z,7.00
2023-03-11T17:47:25.388Z,10.40
2023-03-11T17:49:54.892Z,8.90
2023-03-11T17:52:24.382Z,7.20
2023-03-11T17:54:55.921Z,8.10
2023-03-11T17:57:25.369Z,9.00
2023-03-11T17:59:54.733Z,9.70
2023-03-11T18:02:24.021Z,10.50
2023-03-11T18:04:53.437Z,9.80
2023-03-11T18:07:23.267Z,13.10
2023-03-11T18:09:53.471Z,8.60
2023-03-11T18:12:22.886Z,9.40
2023-03-11T18:14:52.254Z,7.90
2023-03-11T18:17:21.523Z,12.60
2023-03-11T18:19:50.820Z,12.00
2023-03-11T18:22:20.189Z,15.20
2023-03-11T18:24:49.502Z,9.50
2023-03-11T18:27:18.879Z,8.60
2023-03-11T18:29:48.175Z,9.90
2023-03-11T18:32:17.613Z,9.70
2023-03-11T18:34:50.977Z,10.00
2023-03-11T18:37:20.406Z,9.90
2023-03-11T18:39:49.738Z,9.20
2023-03-11T18:42:19.070Z,10.00
2023-03-11T18:44:48.361Z,11.60
2023-03-11T18:47:17.666Z,11.30
2023-03-11T18:49:46.923Z,10.10
2023-03-11T18:52:16.240Z,9.50
2023-03-11T18:54:45.686Z,7.10
2023-03-11T18:57:15.042Z,8.60
2023-03-11T18:59:44.430Z,8.10
2023-03-11T19:02:13.755Z,7.40
2023-03-11T19:04:43.196Z,8.80
2023-03-11T19:07:12.771Z,8.20
2023-03-11T19:09:42.543Z,8.80
2023-03-11T19:12:12.065Z,8.80
2023-03-11T19:14:41.794Z,10.40
2023-03-11T19:17:12.409Z,9.70
2023-03-11T19:19:42.137Z,8.20
2023-03-11T19:22:11.436Z,6.40
2023-03-11T19:24:41.048Z,8.90
2023-03-11T19:27:10.356Z,8.20
2023-03-11T19:29:39.693Z,8.30
2023-03-11T19:32:09.020Z,8.60
2023-03-11T19:34:39.387Z,9.60
2023-03-11T19:37:08.802Z,7.90
2023-03-11T19:39:38.341Z,10.40
2023-03-11T19:42:07.812Z,10.80
2023-03-11T19:44:37.495Z,8.40
2023-03-11T19:47:06.924Z,10.30
2023-03-11T19:49:36.361Z,8.80
2023-03-11T19:52:09.250Z,11.20
2023-03-11T19:54:39.212Z,10.10
2023-03-11T19:57:08.913Z,12.20
2023-03-11T19:59:38.342Z,11.30
2023-03-11T20:02:10.530Z,10.70
2023-03-11T20:04:43.043Z,11.90
2023-03-11T20:07:12.666Z,11.60
2023-03-11T20:09:43.006Z,11.90
2023-03-11T20:12:12.399Z,10.50
2023-03-11T20:14:42.700Z,13.40
2023-03-11T20:17:13.535Z,9.90
2023-03-11T20:19:42.927Z,10.40
2023-03-11T20:22:12.623Z,12.40
2023-03-11T20:24:42.113Z,12.50
2023-03-11T20:27:11.482Z,14.00
2023-03-11T20:29:40.758Z,9.20
2023-03-11T20:32:10.178Z,11.50
2023-03-11T20:34:39.583Z,13.90
2023-03-11T20:37:08.992Z,11.10
2023-03-11T20:39:40.044Z,9.90
2023-03-11T20:42:09.453Z,10.90
2023-03-11T20:44:38.975Z,8.10
2023-03-11T20:47:08.422Z,9.80
2023-03-11T20:49:37.866Z,8.30
2023-03-11T20:52:07.224Z,9.20
2023-03-11T20:54:36.689Z,8.60
2023-03-11T20:57:06.042Z,9.70
2023-03-11T20:59:35.427Z,11.20
2023-03-11T21:02:06.004Z,8.00
2023-03-11T21:04:41.201Z,9.90
2023-03-11T21:07:10.735Z,10.60
2023-03-11T21:09:40.357Z,11.80
2023-03-11T21:12:09.857Z,11.80
2023-03-11T21:14:39.850Z,11.20
2023-03-11T21:17:09.182Z,10.20
2023-03-11T21:19:38.738Z,10.50
2023-03-11T21:22:08.074Z,10.30
2023-03-11T21:24:37.531Z,9.70
2023-03-11T21:27:07.068Z,9.80
2023-03-11T21:29:37.261Z,11.00
2023-03-11T21:32:07.318Z,9.10
2023-03-11T21:34:36.586Z,12.50
2023-03-11T21:37:05.887Z,10.20
2023-03-11T21:39:35.260Z,12.50
2023-03-11T21:42:05.114Z,11.00
2023-03-11T21:44:34.397Z,11.70
2023-03-11T21:47:03.980Z,11.50
2023-03-11T21:49:33.397Z,11.90
2023-03-11T21:52:03.019Z,9.40
2023-03-11T21:54:32.440Z,12.90
2023-03-11T21:57:01.872Z,10.90
2023-03-11T21:59:31.410Z,11.60
2023-03-11T22:02:02.491Z,11.00
2023-03-11T22:04:32.156Z,10.20
2023-03-11T22:07:01.532Z,10.60
2023-03-11T22:09:30.898Z,11.20
2023-03-11T22:12:00.242Z,9.40
2023-03-11T22:14:29.533Z,9.50
2023-03-11T22:16:58.831Z,10.20
2023-03-11T22:19:28.229Z,11.00
2023-03-11T22:21:57.699Z,11.60
2023-03-11T22:24:26.930Z,8.90
2023-03-11T22:26:56.214Z,10.50
2023-03-11T22:29:25.511Z,10.70
2023-03-11T22:31:54.900Z,9.90
2023-03-11T22:34:24.175Z,13.30
2023-03-11T22:36:53.453Z,10.50
2023-03-11T22:39:22.702Z,9.80
2023-03-11T22:41:51.989Z,10.50
2023-03-11T22:44:21.427Z,11.20
2023-03-11T22:46:50.894Z,12.00
2023-03-11T22:49:20.161Z,10.30
2023-03-11T22:51:49.401Z,11.30
2023-03-11T22:54:18.679Z,9.40
2023-03-11T22:56:47.988Z,8.20
2023-03-11T22:59:17.182Z,9.00
2023-03-11T23:01:46.516Z,11.30
2023-03-11T23:04:15.820Z,8.50
2023-03-11T23:06:45.100Z,9.40
2023-03-11T23:09:14.398Z,9.00
2023-03-11T23:11:43.602Z,10.10
2023-03-11T23:14:12.923Z,10.50
2023-03-11T23:16:42.297Z,10.50
2023-03-11T23:19:12.291Z,9.70
2023-03-11T23:21:41.598Z,10.50
2023-03-11T23:24:11.015Z,9.40
2023-03-11T23:26:40.249Z,9.80
2023-03-11T23:29:09.526Z,9.70
2023-03-11T23:31:38.749Z,11.10
2023-03-11T23:34:08.288Z,10.10
2023-03-11T23:36:37.516Z,9.80
2023-03-11T23:39:06.770Z,9.80
2023-03-11T23:41:37.399Z,10.30
2023-03-11T23:44:06.705Z,9.20
2023-03-11T23:46:36.043Z,9.00
2023-03-11T23:49:05.398Z,9.30
2023-03-11T23:51:34.629Z,7.90
2023-03-11T23:54:03.991Z,9.60
2023-03-11T23:56:33.374Z,9.60
2023-03-11T23:59:02.625Z,10.10
